Panama City Beach, Florida
Current Conditions -  °F | °C
As of 2:53 PM on Friday 19 Dec 2014 (Local Time) from KECP Reporting Station
Overcast Overcast  
Wind Chill: 53°   Ceiling: 10000
Heat Index: 53°   Visibility: 10mi
Dew Point: 45°   Wind: 6mph
Humidity: 74%   Direction: 20°NNE
Pressure: 30.06"   Gusts: NA
Location:  30.21°N, 85.85°W
Report Text: KECP 192053Z 02005KT 10SM FEW050 BKN100 OVC120 12/07 A3006 RMK AO2 RAB42E49 SLP191 P0000 60000 T01170072 56030
Loading
Personal Weather Stations






























Interactive Weather Map New forecast layout! Learn more

10-Day Weather Forecast

Advertisements
Track Severe Weather on mobile